createdAt,value
2022-09-06T00:00:18.766Z,101641.66
2022-09-06T00:02:46.485Z,101651.22
2022-09-06T00:05:14.355Z,101651.22
2022-09-06T00:07:42.233Z,101646.03
2022-09-06T00:10:10.568Z,101642.81
2022-09-06T00:12:38.325Z,101644.00
2022-09-06T00:15:06.877Z,101639.22
2022-09-06T00:17:34.072Z,101645.59
2022-09-06T00:20:01.465Z,101643.59
2022-09-06T00:22:28.910Z,101644.38
2022-09-06T00:24:56.028Z,101642.78
2022-09-06T00:27:23.381Z,101642.28
2022-09-06T00:29:50.594Z,101639.47
2022-09-06T00:32:17.954Z,101642.59
2022-09-06T00:34:45.309Z,101642.91
2022-09-06T00:37:12.423Z,101641.41
2022-09-06T00:39:39.741Z,101651.00
2022-09-06T00:42:11.642Z,101645.81
2022-09-06T00:44:39.783Z,101648.25
2022-09-06T00:47:08.879Z,101651.84
2022-09-06T00:49:43.079Z,101649.84
2022-09-06T00:52:13.980Z,101648.63
2022-09-06T00:54:42.206Z,101647.03
2022-09-06T00:57:10.378Z,101644.66
2022-09-06T00:59:39.837Z,101633.50
2022-09-06T01:02:09.682Z,101627.91
2022-09-06T01:04:40.453Z,101627.47
2022-09-06T01:07:41.082Z,101625.09
2022-09-06T01:10:42.419Z,101618.34
2022-09-06T01:13:45.336Z,101620.31
2022-09-06T01:16:34.289Z,101614.75
2022-09-06T01:19:21.951Z,101617.13
2022-09-06T01:22:03.481Z,101617.13
2022-09-06T01:24:55.074Z,101614.34
2022-09-06T01:27:50.044Z,101613.56
2022-09-06T01:30:19.709Z,101614.69
2022-09-06T01:32:55.479Z,101620.56
2022-09-06T01:35:38.872Z,101615.78
2022-09-06T01:38:07.662Z,101610.22
2022-09-06T01:40:36.712Z,101614.16
2022-09-06T01:43:10.648Z,101606.56
2022-09-06T01:46:16.398Z,101618.09
2022-09-06T01:49:11.853Z,101616.06
2022-09-06T01:51:57.585Z,101619.19
2022-09-06T01:54:33.508Z,101614.81
2022-09-06T01:57:11.892Z,101604.78
2022-09-06T02:00:09.307Z,101610.34
2022-09-06T02:02:56.388Z,101609.50
2022-09-06T02:05:36.257Z,101605.94
2022-09-06T02:08:13.147Z,101605.09
2022-09-06T02:11:05.110Z,101608.63
2022-09-06T02:13:44.521Z,101599.84
2022-09-06T02:16:17.997Z,101600.63
2022-09-06T02:18:55.417Z,101598.69
2022-09-06T02:21:29.952Z,101591.88
2022-09-06T02:24:02.310Z,101597.44
2022-09-06T02:26:33.065Z,101601.03
2022-09-06T02:29:00.769Z,101597.81
2022-09-06T02:31:36.181Z,101591.03
2022-09-06T02:34:04.519Z,101585.47
2022-09-06T02:36:33.035Z,101591.38
2022-09-06T02:39:01.744Z,101587.41
2022-09-06T02:41:29.596Z,101577.47
2022-09-06T02:43:57.307Z,101577.88
2022-09-06T02:46:24.719Z,101575.88
2022-09-06T02:48:52.105Z,101575.00
2022-09-06T02:51:19.376Z,101573.41
2022-09-06T02:53:46.848Z,101580.53
2022-09-06T02:56:14.062Z,101589.25
2022-09-06T02:58:41.351Z,101597.59
2022-09-06T03:01:08.628Z,101587.28
2022-09-06T03:03:35.934Z,101580.91
2022-09-06T03:06:03.176Z,101576.47
2022-09-06T03:08:33.739Z,101582.84
2022-09-06T03:11:01.810Z,101588.75
2022-09-06T03:13:29.136Z,101591.19
2022-09-06T03:15:58.424Z,101589.56
2022-09-06T03:18:27.466Z,101589.16
2022-09-06T03:20:56.063Z,101587.53
2022-09-06T03:23:26.148Z,101584.25
2022-09-06T03:25:53.973Z,101590.97
2022-09-06T03:28:21.959Z,101586.59
2022-09-06T03:30:51.669Z,101591.34
2022-09-06T03:33:20.214Z,101586.97
2022-09-06T03:35:52.714Z,101579.78
2022-09-06T03:38:21.200Z,101574.19
2022-09-06T03:40:49.375Z,101578.09
2022-09-06T03:43:18.065Z,101581.91
2022-09-06T03:45:47.308Z,101570.75
2022-09-06T03:48:15.692Z,101574.25
2022-09-06T03:50:47.442Z,101565.75
2022-09-06T03:53:22.749Z,101563.66
2022-09-06T03:55:53.167Z,101561.63
2022-09-06T03:58:22.261Z,101557.59
2022-09-06T04:00:49.820Z,101558.03
2022-09-06T04:03:19.617Z,101555.72
2022-09-06T04:05:47.285Z,101561.69
2022-09-06T04:08:14.444Z,101562.06
2022-09-06T04:10:41.801Z,101552.94
2022-09-06T04:13:08.901Z,101559.63
2022-09-06T04:15:37.294Z,101556.91
2022-09-06T04:18:09.039Z,101558.16
2022-09-06T04:20:36.639Z,101564.09
2022-09-06T04:23:04.358Z,101570.47
2022-09-06T04:25:31.688Z,101571.19
2022-09-06T04:27:59.061Z,101567.25
2022-09-06T04:30:26.356Z,101579.16
2022-09-06T04:32:53.454Z,101576.38
2022-09-06T04:35:20.631Z,101584.34
2022-09-06T04:37:47.959Z,101584.78
2022-09-06T04:40:15.353Z,101585.09
2022-09-06T04:42:42.966Z,101586.22
2022-09-06T04:45:10.637Z,101586.28
2022-09-06T04:47:38.122Z,101584.34
2022-09-06T04:50:05.506Z,101580.84
2022-09-06T04:52:32.651Z,101577.88
2022-09-06T04:54:59.863Z,101590.06
2022-09-06T04:57:27.037Z,101603.66
2022-09-06T04:59:54.310Z,101608.84
2022-09-06T05:02:21.488Z,101617.34
2022-09-06T05:04:48.812Z,101621.34
2022-09-06T05:07:15.938Z,101629.69
2022-09-06T05:09:43.185Z,101625.63
2022-09-06T05:12:10.403Z,101637.53
2022-09-06T05:14:37.570Z,101635.75
2022-09-06T05:17:05.013Z,101635.13
2022-09-06T05:19:32.127Z,101644.00
2022-09-06T05:21:59.431Z,101639.19
2022-09-06T05:24:26.566Z,101631.47
2022-09-06T05:26:53.851Z,101626.38
2022-09-06T05:29:20.938Z,101632.75
2022-09-06T05:31:48.250Z,101631.22
2022-09-06T05:34:15.433Z,101626.59
2022-09-06T05:36:42.589Z,101636.72
2022-09-06T05:39:09.823Z,101640.06
2022-09-06T05:41:36.953Z,101637.19
2022-09-06T05:44:04.616Z,101636.59
2022-09-06T05:46:31.897Z,101646.81
2022-09-06T05:49:04.879Z,101650.88
2022-09-06T05:51:33.048Z,101660.53
2022-09-06T05:54:00.518Z,101646.31
2022-09-06T05:56:27.880Z,101639.59
2022-09-06T05:58:55.091Z,101639.59
2022-09-06T06:01:26.835Z,101645.00
2022-09-06T06:04:00.601Z,101649.00
2022-09-06T06:06:31.581Z,101643.47
2022-09-06T06:08:59.178Z,101640.19
2022-09-06T06:11:27.443Z,101645.66
2022-09-06T06:13:55.391Z,101654.53
2022-09-06T06:16:23.305Z,101657.06
2022-09-06T06:18:52.523Z,101651.97
2022-09-06T06:21:25.194Z,101646.88
2022-09-06T06:23:55.701Z,101650.69
2022-09-06T06:26:23.894Z,101648.72
2022-09-06T06:28:51.830Z,101650.63
2022-09-06T06:31:21.214Z,101661.06
2022-09-06T06:33:48.844Z,101662.06
2022-09-06T06:36:15.887Z,101659.00
2022-09-06T06:38:44.797Z,101669.81
2022-09-06T06:41:14.548Z,101675.44
2022-09-06T06:43:42.329Z,101669.81
2022-09-06T06:46:17.671Z,101671.38
2022-09-06T06:48:46.221Z,101673.69
2022-09-06T06:51:19.933Z,101677.22
2022-09-06T06:53:47.882Z,101678.31
2022-09-06T06:56:15.452Z,101675.41
2022-09-06T06:58:43.086Z,101677.91
2022-09-06T07:01:10.684Z,101681.34
2022-09-06T07:03:38.209Z,101670.25
2022-09-06T07:06:13.218Z,101676.72
2022-09-06T07:08:41.561Z,101680.81
2022-09-06T07:11:11.567Z,101690.50
2022-09-06T07:13:39.278Z,101686.88
2022-09-06T07:16:21.854Z,101677.97
2022-09-06T07:18:55.687Z,101689.13
2022-09-06T07:21:42.539Z,101690.91
2022-09-06T07:24:10.451Z,101684.91
2022-09-06T07:26:40.174Z,101694.47
2022-09-06T07:29:08.607Z,101699.09
2022-09-06T07:34:26.088Z,101697.47
2022-09-06T07:36:54.943Z,101695.59
2022-09-06T07:39:22.708Z,101713.81
2022-09-06T07:41:50.059Z,101712.22
2022-09-06T07:44:17.250Z,101713.34
2022-09-06T07:46:44.770Z,101721.81
2022-09-06T07:49:12.268Z,101706.31
2022-09-06T07:51:39.513Z,101711.53
2022-09-06T07:54:28.858Z,101711.47
2022-09-06T07:56:54.421Z,101712.97
2022-09-06T07:59:21.666Z,101706.09
2022-09-06T08:01:49.675Z,101704.06
2022-09-06T08:04:17.021Z,101703.38
2022-09-06T08:09:37.198Z,101705.41
2022-09-06T08:12:07.571Z,101707.94
2022-09-06T08:14:35.909Z,101711.66
2022-09-06T08:17:04.396Z,101709.94
2022-09-06T08:19:33.130Z,101714.50
2022-09-06T08:22:00.282Z,101713.75
2022-09-06T08:24:28.715Z,101707.09
2022-09-06T08:26:56.581Z,101721.19
2022-09-06T08:29:23.892Z,101714.78
2022-09-06T08:31:51.126Z,101711.56
2022-09-06T08:34:18.469Z,101716.34
2022-09-06T08:36:46.157Z,101721.47
2022-09-06T08:39:13.507Z,101725.03
2022-09-06T08:41:40.581Z,101716.28
2022-09-06T08:47:16.450Z,101716.28
2022-09-06T08:49:46.451Z,101712.63
2022-09-06T08:52:45.381Z,101703.88
2022-09-06T08:55:27.235Z,101711.06
2022-09-06T08:58:15.091Z,101709.81
2022-09-06T09:00:48.467Z,101703.75
2022-09-06T09:03:20.290Z,101703.38
2022-09-06T09:05:51.156Z,101700.16
2022-09-06T09:08:45.119Z,101696.13
2022-09-06T09:11:17.742Z,101696.22
2022-09-06T09:13:44.824Z,101697.38
2022-09-06T09:16:12.172Z,101702.59
2022-09-06T09:18:42.689Z,101699.00
2022-09-06T09:21:10.647Z,101699.06
2022-09-06T09:23:38.098Z,101703.06
2022-09-06T09:26:11.098Z,101701.88
2022-09-06T09:28:38.413Z,101699.06
2022-09-06T09:31:07.305Z,101698.72
2022-09-06T09:33:39.184Z,101700.72
2022-09-06T09:36:13.813Z,101685.91
2022-09-06T09:38:46.316Z,101698.69
2022-09-06T09:41:38.792Z,101689.09
2022-09-06T09:44:11.558Z,101685.88
2022-09-06T09:46:40.180Z,101691.09
2022-09-06T09:49:11.916Z,101688.34
2022-09-06T09:52:05.638Z,101690.00
2022-09-06T09:54:37.443Z,101683.56
2022-09-06T09:57:12.113Z,101668.78
2022-09-06T10:00:01.450Z,101671.56
2022-09-06T10:02:39.344Z,101668.00
2022-09-06T10:05:12.590Z,101665.22
2022-09-06T10:07:49.543Z,101658.81
2022-09-06T10:10:26.686Z,101662.41
2022-09-06T10:13:21.596Z,101654.00
2022-09-06T10:15:50.680Z,101651.59
2022-09-06T10:18:23.735Z,101653.16
2022-09-06T10:20:56.990Z,101633.13
2022-09-06T10:26:26.243Z,101648.00
2022-09-06T10:29:03.460Z,101648.38
2022-09-06T10:31:42.355Z,101652.41
2022-09-06T10:34:26.991Z,101653.22
2022-09-06T10:37:24.853Z,101633.63
2022-09-06T10:40:00.049Z,101631.56
2022-09-06T10:42:44.312Z,101621.94
2022-09-06T10:45:37.811Z,101629.56
2022-09-06T10:48:15.020Z,101632.41
2022-09-06T10:51:00.616Z,101624.34
2022-09-06T10:53:55.471Z,101620.03
2022-09-06T10:57:03.978Z,101612.38
2022-09-06T10:59:39.281Z,101596.34
2022-09-06T11:02:16.933Z,101607.53
2022-09-06T11:07:40.476Z,101597.19
2022-09-06T11:10:33.696Z,101593.22
2022-09-06T11:13:04.980Z,101593.22
2022-09-06T11:16:21.778Z,101593.25
2022-09-06T11:18:59.277Z,101578.84
2022-09-06T11:21:51.525Z,101572.44
2022-09-06T11:24:40.982Z,101580.00
2022-09-06T11:27:26.536Z,101569.19
2022-09-06T11:29:58.458Z,101573.53
2022-09-06T11:32:28.427Z,101567.53
2022-09-06T11:34:59.430Z,101573.16
2022-09-06T11:37:31.352Z,101567.53
2022-09-06T11:42:52.330Z,101555.03
2022-09-06T11:45:21.970Z,101548.31
2022-09-06T11:47:51.906Z,101547.63
2022-09-06T11:50:26.150Z,101550.88
2022-09-06T11:53:17.243Z,101550.81
2022-09-06T11:55:50.422Z,101541.31
2022-09-06T11:58:17.913Z,101541.69
2022-09-06T12:01:14.067Z,101539.28
2022-09-06T12:04:09.967Z,101545.28
2022-09-06T12:07:01.657Z,101543.63
2022-09-06T12:09:38.085Z,101544.00
2022-09-06T12:12:05.728Z,101541.19
2022-09-06T12:14:40.519Z,101543.66
2022-09-06T12:17:09.084Z,101537.22
2022-09-06T12:19:54.914Z,101534.00
2022-09-06T12:22:28.235Z,101525.19
2022-09-06T12:25:16.951Z,101522.00
2022-09-06T12:28:01.774Z,101519.19
2022-09-06T12:30:32.153Z,101510.41
2022-09-06T12:33:01.454Z,101515.31
2022-09-06T12:38:25.453Z,101524.03
2022-09-06T12:40:58.687Z,101522.81
2022-09-06T12:43:27.211Z,101522.00
2022-09-06T12:45:54.492Z,101521.25
2022-09-06T12:48:35.509Z,101508.41
2022-09-06T12:51:20.338Z,101506.44
2022-09-06T12:54:24.703Z,101522.03
2022-09-06T12:56:52.851Z,101511.22
2022-09-06T12:59:25.416Z,101512.41
2022-09-06T13:01:56.071Z,101518.06
2022-09-06T13:04:44.140Z,101513.22
2022-09-06T13:07:15.593Z,101518.81
2022-09-06T13:09:47.163Z,101520.44
2022-09-06T13:12:28.009Z,101514.38
2022-09-06T13:14:57.233Z,101508.81
2022-09-06T13:17:30.038Z,101509.63
2022-09-06T13:20:03.140Z,101502.84
2022-09-06T13:22:49.533Z,101491.63
2022-09-06T13:25:25.675Z,101491.28
2022-09-06T13:27:59.088Z,101483.34
2022-09-06T13:30:49.560Z,101486.56
2022-09-06T13:33:26.914Z,101482.19
2022-09-06T13:36:14.336Z,101488.13
2022-09-06T13:38:44.359Z,101496.09
2022-09-06T13:41:26.524Z,101485.22
2022-09-06T13:44:06.271Z,101482.38
2022-09-06T13:46:36.408Z,101483.22
2022-09-06T13:49:04.461Z,101482.88
2022-09-06T13:51:32.263Z,101478.88
2022-09-06T13:54:06.794Z,101476.50
2022-09-06T13:56:34.483Z,101485.72
2022-09-06T13:59:02.091Z,101480.91
2022-09-06T14:01:29.761Z,101476.56
2022-09-06T14:03:56.926Z,101479.34
2022-09-06T14:06:24.223Z,101470.16
2022-09-06T14:09:08.184Z,101466.16
2022-09-06T14:11:36.823Z,101470.16
2022-09-06T14:14:04.933Z,101447.78
2022-09-06T14:16:33.668Z,101455.78
2022-09-06T14:19:00.862Z,101450.97
2022-09-06T14:21:28.224Z,101450.53
2022-09-06T14:23:55.492Z,101453.34
2022-09-06T14:26:24.691Z,101455.81
2022-09-06T14:28:52.226Z,101453.00
2022-09-06T14:31:26.358Z,101452.59
2022-09-06T14:33:55.325Z,101447.81
2022-09-06T14:36:24.706Z,101449.41
2022-09-06T14:38:52.048Z,101447.84
2022-09-06T14:41:20.874Z,101445.84
2022-09-06T14:43:51.190Z,101442.25
2022-09-06T14:46:20.236Z,101450.22
2022-09-06T14:48:47.884Z,101446.59
2022-09-06T14:51:24.353Z,101444.59
2022-09-06T14:54:01.750Z,101440.19
2022-09-06T14:56:30.230Z,101440.59
2022-09-06T14:58:58.596Z,101447.00
2022-09-06T15:01:37.069Z,101452.22
2022-09-06T15:04:07.127Z,101450.22
2022-09-06T15:06:37.187Z,101439.81
2022-09-06T15:09:05.813Z,101433.84
2022-09-06T15:11:39.611Z,101433.47
2022-09-06T15:14:14.260Z,101441.03
2022-09-06T15:16:41.619Z,101439.03
2022-09-06T15:19:10.304Z,101428.25
2022-09-06T15:21:37.556Z,101436.56
2022-09-06T15:24:11.005Z,101445.41
2022-09-06T15:26:39.965Z,101446.22
2022-09-06T15:29:07.746Z,101444.63
2022-09-06T15:31:35.488Z,101444.63
2022-09-06T15:37:19.102Z,101446.22
2022-09-06T15:39:46.237Z,101443.06
2022-09-06T15:42:13.534Z,101444.25
2022-09-06T15:44:40.870Z,101442.63
2022-09-06T15:47:08.158Z,101447.41
2022-09-06T15:49:36.981Z,101438.28
2022-09-06T15:52:06.233Z,101437.84
2022-09-06T15:54:51.702Z,101437.44
2022-09-06T15:57:18.941Z,101431.84
2022-09-06T15:59:46.476Z,101433.44
2022-09-06T16:02:14.586Z,101435.84
2022-09-06T16:04:42.025Z,101440.66
2022-09-06T16:07:09.913Z,101451.00
2022-09-06T16:09:37.226Z,101447.84
2022-09-06T16:12:04.542Z,101448.63
2022-09-06T16:14:32.210Z,101447.03
2022-09-06T16:16:59.471Z,101441.84
2022-09-06T16:19:26.706Z,101439.03
2022-09-06T16:21:54.136Z,101443.03
2022-09-06T16:24:21.621Z,101439.84
2022-09-06T16:26:49.236Z,101444.63
2022-09-06T16:29:20.869Z,101443.00
2022-09-06T16:31:49.434Z,101442.63
2022-09-06T16:34:17.118Z,101446.59
2022-09-06T16:36:44.531Z,101447.00
2022-09-06T16:39:11.951Z,101450.97
2022-09-06T16:41:42.687Z,101449.34
2022-09-06T16:44:18.146Z,101447.78
2022-09-06T16:46:50.217Z,101449.00
2022-09-06T16:49:19.516Z,101450.16
2022-09-06T16:51:48.209Z,101447.78
2022-09-06T16:54:16.111Z,101448.59
2022-09-06T16:56:44.114Z,101447.78
2022-09-06T16:59:13.251Z,101443.00
2022-09-06T17:01:44.626Z,101444.19
2022-09-06T17:04:13.273Z,101447.00
2022-09-06T17:06:47.218Z,101444.59
2022-09-06T17:09:18.931Z,101451.38
2022-09-06T17:11:50.334Z,101449.78
2022-09-06T17:14:18.383Z,101444.56
2022-09-06T17:17:04.945Z,101443.75
2022-09-06T17:19:41.852Z,101441.75
2022-09-06T17:22:10.695Z,101447.75
2022-09-06T17:24:39.283Z,101443.34
2022-09-06T17:27:07.493Z,101441.72
2022-09-06T17:29:35.184Z,101440.94
2022-09-06T17:32:04.745Z,101434.13
2022-09-06T17:34:33.248Z,101434.94
2022-09-06T17:37:00.458Z,101442.88
2022-09-06T17:39:27.763Z,101436.50
2022-09-06T17:41:55.192Z,101444.88
2022-09-06T17:44:25.628Z,101436.13
2022-09-06T17:47:11.365Z,101437.72
2022-09-06T17:49:40.146Z,101444.88
2022-09-06T17:52:07.457Z,101450.81
2022-09-06T17:54:37.804Z,101447.66
2022-09-06T17:57:05.065Z,101448.44
2022-09-06T17:59:35.336Z,101447.63
2022-09-06T18:02:03.122Z,101455.22
2022-09-06T18:04:30.439Z,101456.81
2022-09-06T18:06:57.674Z,101454.41
2022-09-06T18:09:24.780Z,101461.16
2022-09-06T18:11:51.928Z,101467.53
2022-09-06T18:14:23.569Z,101466.75
2022-09-06T18:16:52.400Z,101459.94
2022-09-06T18:19:19.692Z,101473.09
2022-09-06T18:21:47.691Z,101461.94
2022-09-06T18:24:15.591Z,101467.13
2022-09-06T18:26:43.421Z,101464.72
2022-09-06T18:29:15.026Z,101471.09
2022-09-06T18:31:43.708Z,101477.91
2022-09-06T18:34:11.093Z,101481.09
2022-09-06T18:36:38.934Z,101480.69
2022-09-06T18:39:06.903Z,101479.88
2022-09-06T18:41:53.098Z,101474.66
2022-09-06T18:44:20.780Z,101479.47
2022-09-06T18:46:48.824Z,101487.47
2022-09-06T18:49:17.686Z,101485.06
2022-09-06T18:51:45.862Z,101478.69
2022-09-06T18:54:14.812Z,101473.50
2022-09-06T18:56:45.159Z,101480.25
2022-09-06T18:59:14.050Z,101477.09
2022-09-06T19:01:44.154Z,101476.28
2022-09-06T19:04:12.961Z,101470.66
2022-09-06T19:06:42.773Z,101471.84
2022-09-06T19:09:15.388Z,101465.91
2022-09-06T19:11:45.818Z,101465.47
2022-09-06T19:14:15.139Z,101465.47
2022-09-06T19:16:42.813Z,101479.03
2022-09-06T19:19:11.944Z,101486.97
2022-09-06T19:21:42.323Z,101486.94
2022-09-06T19:24:12.352Z,101492.88
2022-09-06T19:26:43.658Z,101500.88
2022-09-06T19:29:19.194Z,101502.81
2022-09-06T19:31:47.630Z,101506.81
2022-09-06T19:34:16.069Z,101506.03
2022-09-06T19:36:45.927Z,101508.81
2022-09-06T19:39:15.754Z,101509.59
2022-09-06T19:41:45.361Z,101506.03
2022-09-06T19:44:15.125Z,101502.00
2022-09-06T19:46:46.255Z,101500.41
2022-09-06T19:49:19.853Z,101496.44
2022-09-06T19:51:49.206Z,101504.44
2022-09-06T19:54:17.473Z,101500.03
2022-09-06T19:56:45.824Z,101496.06
2022-09-06T19:59:14.637Z,101500.41
2022-09-06T20:01:44.712Z,101500.41
2022-09-06T20:04:14.426Z,101501.56
2022-09-06T20:06:41.704Z,101497.16
2022-09-06T20:09:10.382Z,101502.72
2022-09-06T20:11:40.608Z,101494.72
2022-09-06T20:14:08.813Z,101484.75
2022-09-06T20:16:41.153Z,101485.94
2022-09-06T20:19:09.782Z,101492.31
2022-09-06T20:21:37.153Z,101488.75
2022-09-06T20:24:07.968Z,101491.09
2022-09-06T20:26:37.077Z,101489.50
2022-09-06T20:29:05.386Z,101489.09
2022-09-06T20:31:34.042Z,101491.88
2022-09-06T20:34:04.557Z,101493.06
2022-09-06T20:36:33.431Z,101497.09
2022-09-06T20:39:01.016Z,101489.50
2022-09-06T20:41:30.293Z,101495.50
2022-09-06T20:43:59.974Z,101493.53
2022-09-06T20:46:30.332Z,101490.34
2022-09-06T20:49:02.107Z,101488.34
2022-09-06T20:51:30.057Z,101491.13
2022-09-06T20:53:59.458Z,101487.94
2022-09-06T20:56:33.944Z,101482.38
2022-09-06T20:59:03.811Z,101483.94
2022-09-06T21:01:34.947Z,101476.34
2022-09-06T21:04:05.441Z,101479.13
2022-09-06T21:06:36.873Z,101480.72
2022-09-06T21:09:08.159Z,101483.13
2022-09-06T21:11:36.635Z,101474.75
2022-09-06T21:14:04.832Z,101478.34
2022-09-06T21:16:32.896Z,101482.34
2022-09-06T21:19:03.991Z,101486.31
2022-09-06T21:21:33.480Z,101485.13
2022-09-06T21:24:05.626Z,101484.72
2022-09-06T21:26:33.720Z,101487.50
2022-09-06T21:29:00.912Z,101485.91
2022-09-06T21:31:32.819Z,101480.69
2022-09-06T21:34:03.701Z,101485.88
2022-09-06T21:36:37.045Z,101486.25
2022-09-06T21:39:10.755Z,101488.25
2022-09-06T21:41:40.042Z,101492.22
2022-09-06T21:44:08.418Z,101489.03
2022-09-06T21:46:37.459Z,101482.28
2022-09-06T21:49:07.640Z,101484.25
2022-09-06T21:51:35.615Z,101488.63
2022-09-06T21:54:04.663Z,101485.00
2022-09-06T21:56:34.385Z,101476.63
2022-09-06T21:59:02.811Z,101485.38
2022-09-06T22:01:32.232Z,101486.97
2022-09-06T22:04:00.480Z,101488.56
2022-09-06T22:06:30.026Z,101492.59
2022-09-06T22:09:00.294Z,101494.59
2022-09-06T22:11:32.914Z,101501.75
2022-09-06T22:14:02.582Z,101503.38
2022-09-06T22:16:31.987Z,101508.97
2022-09-06T22:18:59.453Z,101511.75
2022-09-06T22:21:26.713Z,101522.91
2022-09-06T22:23:56.809Z,101516.13
2022-09-06T22:26:26.114Z,101510.13
2022-09-06T22:29:02.316Z,101510.50
2022-09-06T22:31:31.411Z,101509.28
2022-09-06T22:33:59.422Z,101507.69
2022-09-06T22:36:27.415Z,101500.13
2022-09-06T22:38:57.904Z,101493.31
2022-09-06T22:41:27.307Z,101499.31
2022-09-06T22:43:55.638Z,101500.84
2022-09-06T22:46:23.447Z,101495.69
2022-09-06T22:48:50.683Z,101499.31
2022-09-06T22:51:17.928Z,101499.31
2022-09-06T22:53:45.259Z,101497.31
2022-09-06T22:56:12.416Z,101503.69
2022-09-06T22:58:39.692Z,101506.94
2022-09-06T23:01:12.544Z,101521.69
2022-09-06T23:03:41.102Z,101519.72
2022-09-06T23:06:08.697Z,101511.31
2022-09-06T23:08:37.915Z,101512.09
2022-09-06T23:11:10.540Z,101508.84
2022-09-06T23:13:37.840Z,101500.09
2022-09-06T23:16:10.949Z,101481.31
2022-09-06T23:18:38.726Z,101486.88
2022-09-06T23:21:12.036Z,101483.22
2022-09-06T23:23:40.296Z,101485.22
2022-09-06T23:26:15.987Z,101489.22
2022-09-06T23:28:43.325Z,101488.41
2022-09-06T23:31:13.174Z,101484.03
2022-09-06T23:33:42.036Z,101480.03
2022-09-06T23:36:12.718Z,101484.78
2022-09-06T23:38:41.233Z,101486.72
2022-09-06T23:41:10.582Z,101479.56
2022-09-06T23:43:39.009Z,101474.41
2022-09-06T23:46:06.705Z,101465.22
2022-09-06T23:48:33.989Z,101471.59
2022-09-06T23:51:01.307Z,101467.56
2022-09-06T23:53:28.546Z,101464.34
2022-09-06T23:55:55.840Z,101456.41
2022-09-06T23:58:23.189Z,101457.19
